createdAt,value
2023-03-26T00:02:50.077Z,13.23
2023-03-26T00:06:52.238Z,10.23
2023-03-26T00:10:54.255Z,6.50
2023-03-26T00:14:56.364Z,14.45
2023-03-26T00:18:59.878Z,12.32
2023-03-26T00:23:01.926Z,8.73
2023-03-26T00:27:04.540Z,20.42
2023-03-26T00:31:11.468Z,13.18
2023-03-26T00:35:14.229Z,12.65
2023-03-26T00:39:18.086Z,14.13
2023-03-26T00:43:22.087Z,12.30
2023-03-26T00:47:29.024Z,17.23
2023-03-26T00:51:32.147Z,17.65
2023-03-26T00:55:34.692Z,7.05
2023-03-26T00:59:36.502Z,16.63
2023-03-26T01:03:38.892Z,9.23
2023-03-26T01:07:42.915Z,17.55
2023-03-26T01:11:45.772Z,14.32
2023-03-26T01:15:53.310Z,18.88
2023-03-26T01:20:15.231Z,15.02
2023-03-26T01:24:17.498Z,15.80
2023-03-26T01:28:20.331Z,17.80
2023-03-26T01:32:31.203Z,13.45
2023-03-26T01:36:44.889Z,9.02
2023-03-26T01:41:04.812Z,18.42
2023-03-26T01:45:36.288Z,20.80
2023-03-26T01:49:38.238Z,23.33
2023-03-26T01:53:48.386Z,24.42
2023-03-26T01:58:16.157Z,40.05
2023-03-26T02:02:30.983Z,37.72
2023-03-26T02:06:44.773Z,37.13
2023-03-26T02:10:50.437Z,33.45
2023-03-26T02:14:52.866Z,40.20
2023-03-26T02:18:55.978Z,43.60
2023-03-26T02:22:58.137Z,30.50
2023-03-26T02:27:02.484Z,31.08
2023-03-26T02:31:05.103Z,34.28
2023-03-26T02:35:07.580Z,26.48
2023-03-26T02:39:11.174Z,34.95
2023-03-26T02:43:13.626Z,27.45
2023-03-26T02:47:19.380Z,35.65
2023-03-26T02:51:27.543Z,25.42
2023-03-26T02:55:45.637Z,36.05
2023-03-26T02:59:50.521Z,39.58
2023-03-26T03:04:15.667Z,31.80
2023-03-26T03:08:19.038Z,30.83
2023-03-26T03:12:37.802Z,26.45
2023-03-26T03:16:39.786Z,39.20
2023-03-26T03:20:44.997Z,35.95
2023-03-26T03:24:46.838Z,40.15
2023-03-26T03:28:52.208Z,42.38
2023-03-26T03:32:54.198Z,29.85
2023-03-26T03:36:58.357Z,43.40
2023-03-26T03:41:14.353Z,40.30
2023-03-26T03:45:19.300Z,34.33
